createdAt,value
2023-06-26T00:03:39.881Z,101093.38
2023-06-26T00:08:41.583Z,101086.94
2023-06-26T00:13:43.199Z,101082.88
2023-06-26T00:18:44.772Z,101077.78
2023-06-26T00:23:46.840Z,101069.44
2023-06-26T00:28:48.383Z,101071.38
2023-06-26T00:33:49.961Z,101078.22
2023-06-26T00:38:51.625Z,101069.97
2023-06-26T00:43:53.196Z,101069.56
2023-06-26T00:48:56.222Z,101077.72
2023-06-26T00:53:58.792Z,101079.16
2023-06-26T00:59:00.392Z,101091.59
2023-06-26T01:04:02.223Z,101090.88
2023-06-26T01:09:04.297Z,101085.31
2023-06-26T01:14:05.887Z,101081.91
2023-06-26T01:19:12.161Z,101097.22
2023-06-26T01:24:21.591Z,101093.25
2023-06-26T01:29:25.024Z,101091.09
2023-06-26T01:34:27.910Z,101081.88
2023-06-26T01:39:29.583Z,101077.19
2023-06-26T01:44:36.358Z,101083.56
2023-06-26T01:49:52.869Z,101098.19
2023-06-26T01:55:10.158Z,101093.59
2023-06-26T02:00:14.046Z,101093.44
2023-06-26T02:05:15.885Z,101096.53
2023-06-26T02:10:17.435Z,101095.94
2023-06-26T02:15:18.990Z,101097.00
2023-06-26T02:20:20.568Z,101094.00
2023-06-26T02:25:22.300Z,101111.34
2023-06-26T02:30:23.832Z,101108.53
2023-06-26T02:35:25.375Z,101108.94
2023-06-26T02:40:26.911Z,101098.75
2023-06-26T02:45:28.467Z,101109.06
2023-06-26T02:50:30.079Z,101119.97
2023-06-26T02:55:31.608Z,101107.16
2023-06-26T03:00:33.209Z,101130.78
2023-06-26T03:05:34.819Z,101123.03
2023-06-26T03:10:36.518Z,101121.59
2023-06-26T03:15:38.350Z,101128.13
2023-06-26T03:20:40.187Z,101130.72
2023-06-26T03:25:42.015Z,101149.75
2023-06-26T03:30:43.985Z,101145.72
2023-06-26T03:35:45.601Z,101151.69
2023-06-26T03:40:47.159Z,101157.47
2023-06-26T03:45:48.726Z,101166.25
2023-06-26T03:50:50.660Z,101168.25
2023-06-26T03:55:52.213Z,101183.34
2023-06-26T04:00:54.326Z,101191.00
2023-06-26T04:05:55.879Z,101202.13
2023-06-26T04:10:58.891Z,101211.13
2023-06-26T04:16:00.510Z,101212.84
2023-06-26T04:21:09.038Z,101225.84
2023-06-26T04:26:14.367Z,101247.38
2023-06-26T04:31:16.037Z,101243.31
2023-06-26T04:36:18.959Z,101249.31
2023-06-26T04:41:20.480Z,101252.06
2023-06-26T04:46:22.067Z,101249.94
2023-06-26T04:51:23.621Z,101249.09
2023-06-26T04:56:27.196Z,101263.75
2023-06-26T05:01:30.759Z,101264.34
2023-06-26T05:06:32.510Z,101257.31
2023-06-26T05:11:34.257Z,101279.47
2023-06-26T05:16:36.427Z,101282.41
2023-06-26T05:21:38.290Z,101293.88
2023-06-26T05:26:40.122Z,101295.34
2023-06-26T05:31:44.470Z,101299.13
2023-06-26T05:36:48.417Z,101306.09
2023-06-26T05:41:50.308Z,101308.38
2023-06-26T05:46:52.108Z,101322.84
2023-06-26T05:51:53.955Z,101332.38
2023-06-26T05:57:02.116Z,101330.81
2023-06-26T06:02:04.125Z,101342.25
2023-06-26T06:07:06.275Z,101352.50
2023-06-26T06:12:08.817Z,101368.19
2023-06-26T06:17:10.347Z,101361.88
2023-06-26T06:22:11.915Z,101381.84
2023-06-26T06:27:14.262Z,101380.81
2023-06-26T06:32:15.958Z,101386.06
2023-06-26T06:37:17.612Z,101404.94
2023-06-26T06:42:19.170Z,101406.75
2023-06-26T06:47:20.841Z,101414.84
2023-06-26T06:52:22.483Z,101415.75
2023-06-26T06:57:24.097Z,101435.53
2023-06-26T07:02:25.711Z,101446.19
2023-06-26T07:07:31.862Z,101444.59
2023-06-26T07:12:34.570Z,101442.50
2023-06-26T07:17:36.549Z,101443.41
2023-06-26T07:22:38.442Z,101455.38
2023-06-26T07:27:41.035Z,101458.72
2023-06-26T07:32:45.957Z,101461.13
2023-06-26T07:37:47.708Z,101468.78
2023-06-26T07:42:49.441Z,101479.06
2023-06-26T07:47:50.991Z,101485.53
2023-06-26T07:52:54.261Z,101493.19
2023-06-26T07:57:56.385Z,101503.88
2023-06-26T08:02:58.083Z,101508.81
2023-06-26T08:07:59.783Z,101508.66
2023-06-26T08:13:01.571Z,101517.72
2023-06-26T08:18:03.248Z,101510.84
2023-06-26T08:23:05.235Z,101522.28
2023-06-26T08:28:06.826Z,101532.38
2023-06-26T08:33:13.238Z,101546.69
2023-06-26T08:38:14.824Z,101543.44
2023-06-26T08:43:23.168Z,101549.47
2023-06-26T08:48:25.515Z,101547.22
2023-06-26T08:53:48.139Z,101555.09
2023-06-26T08:58:50.604Z,101564.44
2023-06-26T09:03:53.067Z,101568.91
2023-06-26T09:08:54.659Z,101571.59
2023-06-26T09:13:56.643Z,101591.41
2023-06-26T09:18:58.170Z,101585.06
2023-06-26T09:23:59.754Z,101584.78
2023-06-26T09:29:01.385Z,101589.50
2023-06-26T09:34:04.270Z,101603.31
2023-06-26T09:39:11.732Z,101606.38
2023-06-26T09:44:15.365Z,101609.97
2023-06-26T09:49:17.020Z,101607.41
2023-06-26T09:54:19.706Z,101618.44
2023-06-26T09:59:21.515Z,101640.25
2023-06-26T10:04:23.192Z,101622.59
2023-06-26T10:09:28.311Z,101623.53
2023-06-26T10:14:36.626Z,101637.41
2023-06-26T10:19:44.739Z,101658.38
2023-06-26T10:24:48.479Z,101678.25
2023-06-26T10:29:59.334Z,101682.00
2023-06-26T10:35:04.160Z,101675.47
2023-06-26T10:40:06.414Z,101682.13
2023-06-26T10:45:18.715Z,101672.94
2023-06-26T10:50:24.504Z,101679.47
2023-06-26T10:55:29.736Z,101684.09
2023-06-26T11:00:31.497Z,101683.09
2023-06-26T11:05:34.460Z,101689.41
2023-06-26T11:10:53.634Z,101696.25
2023-06-26T11:15:57.929Z,101712.09
2023-06-26T11:21:10.012Z,101722.63
2023-06-26T11:26:24.397Z,101738.25
2023-06-26T11:31:33.232Z,101736.78
2023-06-26T11:36:37.919Z,101716.84
2023-06-26T11:41:41.366Z,101743.16
2023-06-26T11:46:44.228Z,101741.66
2023-06-26T11:51:47.772Z,101753.41
2023-06-26T11:57:00.326Z,101766.16
2023-06-26T12:02:05.901Z,101780.16
2023-06-26T12:07:10.172Z,101777.84
2023-06-26T12:12:15.371Z,101804.25
2023-06-26T12:17:17.122Z,101799.47
2023-06-26T12:22:19.503Z,101798.06
2023-06-26T12:27:21.069Z,101796.19
2023-06-26T12:32:29.626Z,101796.00
2023-06-26T12:37:37.930Z,101804.03
2023-06-26T12:42:39.516Z,101810.59
2023-06-26T12:47:42.403Z,101814.00
2023-06-26T12:52:44.070Z,101811.94
2023-06-26T12:57:45.687Z,101826.69
2023-06-26T13:02:47.367Z,101817.94
2023-06-26T13:07:48.998Z,101832.59
2023-06-26T13:12:50.558Z,101820.50
2023-06-26T13:17:52.169Z,101820.41
2023-06-26T13:22:54.641Z,101825.66
2023-06-26T13:27:56.266Z,101837.09
2023-06-26T13:32:57.845Z,101838.41
2023-06-26T13:37:59.402Z,101829.44
2023-06-26T13:43:00.995Z,101835.56
2023-06-26T13:48:03.083Z,101841.22
2023-06-26T13:53:04.664Z,101836.59
2023-06-26T13:58:06.631Z,101831.44
2023-06-26T14:03:08.823Z,101847.91
2023-06-26T14:08:11.849Z,101843.63
2023-06-26T14:13:16.280Z,101860.44
2023-06-26T14:18:18.821Z,101859.09
2023-06-26T14:23:20.441Z,101860.91
2023-06-26T14:28:23.160Z,101868.66
2023-06-26T14:33:24.752Z,101871.28
2023-06-26T14:38:26.396Z,101870.69
2023-06-26T14:43:27.989Z,101859.91
2023-06-26T14:48:31.005Z,101868.25
2023-06-26T14:53:32.722Z,101867.03
2023-06-26T14:58:34.256Z,101864.50
2023-06-26T15:03:35.987Z,101868.09
2023-06-26T15:08:37.723Z,101874.09
2023-06-26T15:13:39.312Z,101877.75
2023-06-26T15:18:42.245Z,101882.75
2023-06-26T15:23:43.790Z,101873.56
2023-06-26T15:28:45.336Z,101872.03
2023-06-26T15:33:46.988Z,101882.06
2023-06-26T15:38:48.591Z,101873.97
2023-06-26T15:43:51.061Z,101881.69
2023-06-26T15:48:52.624Z,101885.56
2023-06-26T15:53:54.152Z,101889.19
2023-06-26T15:58:56.276Z,101887.50
2023-06-26T16:03:57.912Z,101876.59
2023-06-26T16:08:59.536Z,101876.00
2023-06-26T16:14:01.167Z,101874.50
2023-06-26T16:19:04.293Z,101875.16
2023-06-26T16:24:06.274Z,101871.72
2023-06-26T16:29:07.917Z,101877.47
2023-06-26T16:34:09.875Z,101874.94
2023-06-26T16:39:17.106Z,101869.41
2023-06-26T16:44:18.676Z,101871.72
2023-06-26T16:49:20.261Z,101878.56
2023-06-26T16:54:21.844Z,101875.28
2023-06-26T16:59:23.483Z,101880.84
2023-06-26T17:04:25.006Z,101885.78
2023-06-26T17:09:26.810Z,101881.03
2023-06-26T17:14:28.549Z,101885.97
2023-06-26T17:19:30.239Z,101885.28
2023-06-26T17:24:32.404Z,101889.31
2023-06-26T17:29:34.018Z,101892.50
2023-06-26T17:34:36.658Z,101894.19
2023-06-26T17:39:38.342Z,101896.97
2023-06-26T17:44:39.990Z,101901.44
2023-06-26T17:49:41.656Z,101901.59
2023-06-26T17:54:43.176Z,101901.19
2023-06-26T17:59:44.828Z,101906.03
2023-06-26T18:04:46.512Z,101901.03
2023-06-26T18:09:48.215Z,101901.03
2023-06-26T18:14:49.992Z,101911.22
2023-06-26T18:19:51.525Z,101920.56
2023-06-26T18:24:53.092Z,101923.94
2023-06-26T18:29:54.688Z,101932.91
2023-06-26T18:34:56.299Z,101935.44
2023-06-26T18:39:58.460Z,101933.03
2023-06-26T18:45:00.017Z,101925.72
2023-06-26T18:50:02.066Z,101926.19
2023-06-26T18:55:03.898Z,101911.66
2023-06-26T19:00:07.085Z,101920.41
2023-06-26T19:05:09.137Z,101922.47
2023-06-26T19:10:11.975Z,101917.03
2023-06-26T19:15:13.860Z,101927.44
2023-06-26T19:20:15.626Z,101941.69
2023-06-26T19:25:17.308Z,101940.09
2023-06-26T19:30:18.886Z,101932.19
2023-06-26T19:35:22.435Z,101935.94
2023-06-26T19:40:26.253Z,101936.91
2023-06-26T19:45:27.952Z,101946.41
2023-06-26T19:50:29.702Z,101950.34
2023-06-26T19:55:31.347Z,101956.88
2023-06-26T20:00:33.335Z,101950.41
2023-06-26T20:05:34.963Z,101963.50
2023-06-26T20:10:36.512Z,101970.78
2023-06-26T20:15:38.318Z,101973.84
2023-06-26T20:20:41.057Z,101970.53
2023-06-26T20:25:43.180Z,101974.22
2023-06-26T20:30:44.922Z,101973.06
2023-06-26T20:35:46.468Z,101967.25
2023-06-26T20:40:48.259Z,101973.16
2023-06-26T20:45:51.056Z,101971.16
2023-06-26T20:50:52.900Z,101963.81
2023-06-26T20:55:54.728Z,101961.16
2023-06-26T21:00:56.329Z,101963.16
2023-06-26T21:05:58.003Z,101970.06
2023-06-26T21:10:59.551Z,101959.63
2023-06-26T21:16:01.113Z,101953.47
2023-06-26T21:21:03.016Z,101959.69
2023-06-26T21:26:04.869Z,101960.13
2023-06-26T21:31:06.569Z,101955.50
2023-06-26T21:36:08.163Z,101949.19
2023-06-26T21:41:10.459Z,101955.44
2023-06-26T21:46:12.088Z,101950.28
2023-06-26T21:51:13.706Z,101948.91
2023-06-26T21:56:15.431Z,101955.66
2023-06-26T22:01:17.093Z,101959.63
2023-06-26T22:06:18.727Z,101949.84
2023-06-26T22:11:20.291Z,101956.56
2023-06-26T22:16:21.880Z,101945.72
2023-06-26T22:21:24.463Z,101942.78
2023-06-26T22:26:26.182Z,101946.38
2023-06-26T22:31:27.820Z,101942.84
2023-06-26T22:36:29.425Z,101947.53
2023-06-26T22:41:31.018Z,101935.13
2023-06-26T22:46:32.643Z,101930.50
2023-06-26T22:51:34.230Z,101933.28
2023-06-26T22:56:49.926Z,101935.34
2023-06-26T23:01:56.901Z,101932.94
2023-06-26T23:07:00.840Z,101932.78
2023-06-26T23:12:02.561Z,101915.41
2023-06-26T23:17:07.311Z,101932.94
2023-06-26T23:22:11.684Z,101929.22
2023-06-26T23:27:14.013Z,101928.16
2023-06-26T23:32:16.382Z,101924.56
2023-06-26T23:37:26.302Z,101916.63
2023-06-26T23:42:28.026Z,101921.28
2023-06-26T23:47:29.640Z,101923.50
2023-06-26T23:52:31.253Z,101929.53
2023-06-26T23:57:33.160Z,101925.41
